createdAt,value
2018-08-09T00:00:23.835Z,0.00
2018-08-09T00:01:23.907Z,0.00
2018-08-09T00:02:23.967Z,0.00
2018-08-09T00:03:24.039Z,0.00
2018-08-09T00:04:24.107Z,0.00
2018-08-09T00:05:24.178Z,0.00
2018-08-09T00:06:24.231Z,0.00
2018-08-09T00:07:24.301Z,0.00
2018-08-09T00:08:24.611Z,0.00
2018-08-09T00:09:24.434Z,0.00
2018-08-09T00:10:24.494Z,0.00
2018-08-09T00:11:24.566Z,0.00
2018-08-09T00:12:24.626Z,0.00
2018-08-09T00:13:24.705Z,0.00
2018-08-09T00:14:24.766Z,0.00
2018-08-09T00:15:24.826Z,0.00
2018-08-09T00:16:24.895Z,0.00
2018-08-09T00:17:24.959Z,0.00
2018-08-09T00:18:25.035Z,0.00
2018-08-09T00:19:25.099Z,0.00
2018-08-09T00:20:25.159Z,0.00
2018-08-09T00:21:25.223Z,0.00
2018-08-09T00:22:25.291Z,0.00
2018-08-09T00:23:25.363Z,0.00
2018-08-09T00:24:25.431Z,0.00
2018-08-09T00:25:25.491Z,0.00
2018-08-09T00:26:25.557Z,0.00
2018-08-09T00:27:25.623Z,0.00
2018-08-09T00:28:25.695Z,0.00
2018-08-09T00:29:25.760Z,0.00
2018-08-09T00:30:25.819Z,0.00
2018-08-09T00:31:25.895Z,0.00
2018-08-09T00:32:25.953Z,0.00
2018-08-09T00:33:26.028Z,0.00
2018-08-09T00:34:26.091Z,0.00
2018-08-09T00:35:26.151Z,0.00
2018-08-09T00:36:26.219Z,0.00
2018-08-09T00:37:26.287Z,0.00
2018-08-09T00:38:26.471Z,0.00
2018-08-09T00:39:26.415Z,0.00
2018-08-09T00:40:26.484Z,0.00
2018-08-09T00:41:26.551Z,0.00
2018-08-09T00:42:26.619Z,0.00
2018-08-09T00:43:26.687Z,0.00
2018-08-09T00:44:26.760Z,0.00
2018-08-09T00:45:26.815Z,0.00
2018-08-09T00:46:26.880Z,0.00
2018-08-09T00:47:26.948Z,0.00
2018-08-09T00:48:27.020Z,0.00
2018-08-09T00:49:27.084Z,0.00
2018-08-09T00:50:27.144Z,0.00
2018-08-09T00:51:27.212Z,0.00
2018-08-09T00:52:27.284Z,0.00
2018-08-09T00:53:27.496Z,0.00
2018-08-09T00:54:27.416Z,0.00
2018-08-09T00:55:27.476Z,0.00
2018-08-09T00:56:27.548Z,0.00
2018-08-09T00:57:27.608Z,0.00
2018-08-09T00:58:27.685Z,0.00
2018-08-09T00:59:27.748Z,0.00
2018-08-09T01:00:27.808Z,0.00
2018-08-09T01:01:27.872Z,0.00
2018-08-09T01:02:27.940Z,0.00
2018-08-09T01:03:28.013Z,0.00
2018-08-09T01:04:28.083Z,0.00
2018-08-09T01:05:28.136Z,0.00
2018-08-09T01:06:28.208Z,0.00
2018-08-09T01:07:28.276Z,0.00
2018-08-09T01:08:28.345Z,0.00
2018-08-09T01:09:28.413Z,0.00
2018-08-09T01:10:28.469Z,0.00
2018-08-09T01:11:28.540Z,0.00
2018-08-09T01:12:28.600Z,0.00
2018-08-09T01:13:28.681Z,0.00
2018-08-09T01:14:28.741Z,0.00
2018-08-09T01:15:28.801Z,0.00
2018-08-09T01:16:28.869Z,0.00
2018-08-09T01:17:28.933Z,0.00
2018-08-09T01:18:29.009Z,0.00
2018-08-09T01:19:29.073Z,0.00
2018-08-09T01:20:29.133Z,0.00
2018-08-09T01:21:29.198Z,0.00
2018-08-09T01:22:29.269Z,0.00
2018-08-09T01:23:29.485Z,0.00
2018-08-09T01:24:29.397Z,0.00
2018-08-09T01:25:29.461Z,0.00
2018-08-09T01:26:29.529Z,0.00
2018-08-09T01:27:29.593Z,0.00
2018-08-09T01:28:29.666Z,0.00
2018-08-09T01:29:29.745Z,0.00
2018-08-09T01:30:29.793Z,0.00
2018-08-09T01:31:29.861Z,0.00
2018-08-09T01:32:29.926Z,0.00
2018-08-09T01:33:29.998Z,0.00
2018-08-09T01:34:30.066Z,0.00
2018-08-09T01:35:30.126Z,0.00
2018-08-09T01:36:30.195Z,0.00
2018-08-09T01:37:30.258Z,0.00
2018-08-09T01:38:30.349Z,0.00
2018-08-09T01:39:30.390Z,0.00
2018-08-09T01:40:30.457Z,0.00
2018-08-09T01:41:30.522Z,0.00
2018-08-09T01:42:30.585Z,0.00
2018-08-09T01:43:30.658Z,0.00
2018-08-09T01:44:30.726Z,0.00
2018-08-09T01:45:30.786Z,0.00
2018-08-09T01:46:30.850Z,0.00
2018-08-09T01:47:30.918Z,0.00
2018-08-09T01:48:30.990Z,0.00
2018-08-09T01:49:31.057Z,0.00
2018-08-09T01:50:31.114Z,0.00
2018-08-09T01:51:31.182Z,0.00
2018-08-09T01:52:31.250Z,0.00
2018-08-09T01:53:31.462Z,0.00
2018-08-09T01:54:31.387Z,0.00
2018-08-09T01:55:31.446Z,0.00
2018-08-09T01:56:31.510Z,0.00
2018-08-09T01:57:31.578Z,0.00
2018-08-09T01:58:31.671Z,0.00
2018-08-09T01:59:31.714Z,0.00
2018-08-09T02:00:31.779Z,0.00
2018-08-09T02:01:31.843Z,0.00
2018-08-09T02:02:31.918Z,0.00
2018-08-09T02:03:31.978Z,0.00
2018-08-09T02:04:32.101Z,0.00
2018-08-09T02:05:32.107Z,0.00
2018-08-09T02:06:32.171Z,0.00
2018-08-09T02:07:32.239Z,0.00
2018-08-09T02:08:32.303Z,0.00
2018-08-09T02:09:32.383Z,0.00
2018-08-09T02:10:32.435Z,0.00
2018-08-09T02:11:32.503Z,0.00
2018-08-09T02:12:32.567Z,0.00
2018-08-09T02:13:32.637Z,0.00
2018-08-09T02:14:32.710Z,0.00
2018-08-09T02:15:32.771Z,0.00
2018-08-09T02:16:32.831Z,0.00
2018-08-09T02:17:32.899Z,0.00
2018-08-09T02:18:32.963Z,0.00
2018-08-09T02:19:33.035Z,0.00
2018-08-09T02:20:33.103Z,0.00
2018-08-09T02:21:33.160Z,0.00
2018-08-09T02:22:33.227Z,0.00
2018-08-09T02:23:33.299Z,0.00
2018-08-09T02:24:33.368Z,0.00
2018-08-09T02:25:33.431Z,0.00
2018-08-09T02:26:33.503Z,0.00
2018-08-09T02:27:33.559Z,0.00
2018-08-09T02:28:33.623Z,0.00
2018-08-09T02:29:33.696Z,0.00
2018-08-09T02:30:33.766Z,0.00
2018-08-09T02:31:33.820Z,0.00
2018-08-09T02:32:33.888Z,0.00
2018-08-09T02:33:33.952Z,0.00
2018-08-09T02:34:34.027Z,0.00
2018-08-09T02:35:34.092Z,0.00
2018-08-09T02:36:34.152Z,0.00
2018-08-09T02:37:34.215Z,0.00
2018-08-09T02:38:34.288Z,0.00
2018-08-09T02:39:34.500Z,0.00
2018-08-09T02:40:34.416Z,0.00
2018-08-09T02:41:34.480Z,0.00
2018-08-09T02:42:34.548Z,0.00
2018-08-09T02:43:34.612Z,0.00
2018-08-09T02:44:34.688Z,0.00
2018-08-09T02:45:34.752Z,0.00
2018-08-09T02:46:34.859Z,0.00
2018-08-09T02:47:34.885Z,0.00
2018-08-09T02:48:34.945Z,0.00
2018-08-09T02:49:35.021Z,0.00
2018-08-09T02:50:35.080Z,0.00
2018-08-09T02:51:35.140Z,0.00
2018-08-09T02:52:35.209Z,0.00
2018-08-09T02:53:35.273Z,0.00
2018-08-09T02:54:35.344Z,0.00
2018-08-09T02:55:35.418Z,0.00
2018-08-09T02:56:35.472Z,0.00
2018-08-09T02:57:35.537Z,0.00
2018-08-09T02:58:35.604Z,0.00
2018-08-09T02:59:35.676Z,0.00
2018-08-09T03:00:35.741Z,0.00
2018-08-09T03:01:35.801Z,0.00
2018-08-09T03:02:35.864Z,0.00
2018-08-09T03:03:35.937Z,0.00
2018-08-09T03:04:36.011Z,0.00
2018-08-09T03:05:36.075Z,0.00
2018-08-09T03:06:36.128Z,0.00
2018-08-09T03:07:36.198Z,0.00
2018-08-09T03:08:36.262Z,0.00
2018-08-09T03:09:36.533Z,0.00
2018-08-09T03:10:36.394Z,0.00
2018-08-09T03:11:36.464Z,0.00
2018-08-09T03:12:36.527Z,0.00
2018-08-09T03:13:36.594Z,0.00
2018-08-09T03:14:36.671Z,0.00
2018-08-09T03:15:36.733Z,0.00
2018-08-09T03:16:36.789Z,0.00
2018-08-09T03:17:36.856Z,0.00
2018-08-09T03:18:36.925Z,0.00
2018-08-09T03:19:36.989Z,0.00
2018-08-09T03:20:37.073Z,0.00
2018-08-09T03:21:37.117Z,0.00
2018-08-09T03:22:37.190Z,0.00
2018-08-09T03:23:37.249Z,0.00
2018-08-09T03:24:37.318Z,0.00
2018-08-09T03:25:37.406Z,0.00
2018-08-09T03:26:37.449Z,0.00
2018-08-09T03:27:37.514Z,0.00
2018-08-09T03:28:37.577Z,0.00
2018-08-09T03:29:37.657Z,0.00
2018-08-09T03:30:37.718Z,0.00
2018-08-09T03:31:37.785Z,0.00
2018-08-09T03:32:37.846Z,0.00
2018-08-09T03:33:37.909Z,0.00
2018-08-09T03:34:37.973Z,0.00
2018-08-09T03:35:38.053Z,0.00
2018-08-09T03:36:38.114Z,0.00
2018-08-09T03:37:38.174Z,0.00
2018-08-09T03:38:38.237Z,0.00
2018-08-09T03:39:38.305Z,0.00
2018-08-09T03:40:38.387Z,0.00
2018-08-09T03:41:38.437Z,0.00
2018-08-09T03:42:38.501Z,0.00
2018-08-09T03:43:38.565Z,0.00
2018-08-09T03:44:38.634Z,0.00
2018-08-09T03:45:38.706Z,0.00
2018-08-09T03:46:38.770Z,0.00
2018-08-09T03:47:38.832Z,0.00
2018-08-09T03:48:38.894Z,0.00
2018-08-09T03:49:38.962Z,0.00
2018-08-09T03:50:39.042Z,0.00
2018-08-09T03:51:39.102Z,0.00
2018-08-09T03:52:39.158Z,0.00
2018-08-09T03:53:39.229Z,0.00
2018-08-09T03:54:39.291Z,0.00
2018-08-09T03:55:39.367Z,0.00
2018-08-09T03:56:39.431Z,0.00
2018-08-09T03:57:39.494Z,0.00
2018-08-09T03:58:39.562Z,0.00
2018-08-09T03:59:39.673Z,0.00
2018-08-09T04:00:39.710Z,0.00
2018-08-09T04:01:39.758Z,0.00
2018-08-09T04:02:39.835Z,0.00
2018-08-09T04:03:39.885Z,0.00
2018-08-09T04:04:39.951Z,0.00
2018-08-09T04:05:40.023Z,0.00
2018-08-09T04:06:40.087Z,0.00
2018-08-09T04:07:40.147Z,0.00
2018-08-09T04:08:40.214Z,0.00
2018-08-09T04:09:40.281Z,0.00
2018-08-09T04:10:40.361Z,0.00
2018-08-09T04:11:40.414Z,0.00
2018-08-09T04:12:40.478Z,0.00
2018-08-09T04:13:40.543Z,0.00
2018-08-09T04:14:40.611Z,0.00
2018-08-09T04:15:40.683Z,0.00
2018-08-09T04:16:40.804Z,0.00
2018-08-09T04:17:40.809Z,0.00
2018-08-09T04:18:40.872Z,0.00
2018-08-09T04:19:40.939Z,0.00
2018-08-09T04:20:41.012Z,0.00
2018-08-09T04:21:41.081Z,0.00
2018-08-09T04:22:41.136Z,0.00
2018-08-09T04:23:41.207Z,5.63
2018-08-09T04:24:41.268Z,5.63
2018-08-09T04:25:41.695Z,5.63
2018-08-09T04:26:41.400Z,5.63
2018-08-09T04:27:41.472Z,11.25
2018-08-09T04:28:41.532Z,11.25
2018-08-09T04:29:41.595Z,11.25
2018-08-09T04:30:41.663Z,11.25
2018-08-09T04:31:41.843Z,11.25
2018-08-09T04:32:41.796Z,11.25
2018-08-09T04:33:41.864Z,16.88
2018-08-09T04:34:41.928Z,16.88
2018-08-09T04:35:41.991Z,22.50
2018-08-09T04:36:42.064Z,22.50
2018-08-09T04:37:42.144Z,22.50
2018-08-09T04:38:42.196Z,28.13
2018-08-09T04:39:42.256Z,28.13
2018-08-09T04:40:42.324Z,28.13
2018-08-09T04:41:42.396Z,28.13
2018-08-09T04:42:42.456Z,33.75
2018-08-09T04:43:42.528Z,28.13
2018-08-09T04:44:42.588Z,28.13
2018-08-09T04:45:42.681Z,28.13
2018-08-09T04:46:42.724Z,28.13
2018-08-09T04:47:42.805Z,28.13
2018-08-09T04:48:42.856Z,28.13
2018-08-09T04:49:42.916Z,33.75
2018-08-09T04:50:42.984Z,33.75
2018-08-09T04:51:43.048Z,28.13
2018-08-09T04:52:43.140Z,28.13
2018-08-09T04:53:43.180Z,28.13
2018-08-09T04:54:43.249Z,33.75
2018-08-09T04:55:43.312Z,33.75
2018-08-09T04:56:43.377Z,33.75
2018-08-09T04:57:43.460Z,33.75
2018-08-09T04:58:43.517Z,33.75
2018-08-09T04:59:43.576Z,33.75
2018-08-09T05:00:43.643Z,33.75
2018-08-09T05:01:43.713Z,33.75
2018-08-09T05:02:43.781Z,33.75
2018-08-09T05:03:43.853Z,33.75
2018-08-09T05:04:43.909Z,33.75
2018-08-09T05:05:43.977Z,33.75
2018-08-09T05:06:44.041Z,33.75
2018-08-09T05:07:44.123Z,33.75
2018-08-09T05:08:44.173Z,28.13
2018-08-09T05:09:44.237Z,22.50
2018-08-09T05:10:44.308Z,22.50
2018-08-09T05:11:44.373Z,22.50
2018-08-09T05:12:44.441Z,22.50
2018-08-09T05:13:44.533Z,22.50
2018-08-09T05:14:44.569Z,22.50
2018-08-09T05:15:44.638Z,22.50
2018-08-09T05:16:44.702Z,22.50
2018-08-09T05:17:44.775Z,22.50
2018-08-09T05:18:44.844Z,22.50
2018-08-09T05:19:44.901Z,22.50
2018-08-09T05:20:44.966Z,28.13
2018-08-09T05:21:45.034Z,33.75
2018-08-09T05:22:45.122Z,33.75
2018-08-09T05:23:45.170Z,33.75
2018-08-09T05:24:45.230Z,33.75
2018-08-09T05:25:45.300Z,33.75
2018-08-09T05:26:45.366Z,33.75
2018-08-09T05:27:45.438Z,33.75
2018-08-09T05:28:45.507Z,33.75
2018-08-09T05:29:45.566Z,39.38
2018-08-09T05:30:45.630Z,45.00
2018-08-09T05:31:45.695Z,50.63
2018-08-09T05:32:45.766Z,56.25
2018-08-09T05:33:45.834Z,56.25
2018-08-09T05:34:45.907Z,61.88
2018-08-09T05:35:45.966Z,61.88
2018-08-09T05:36:46.027Z,61.88
2018-08-09T05:37:46.107Z,56.25
2018-08-09T05:38:46.158Z,50.63
2018-08-09T05:39:46.226Z,45.00
2018-08-09T05:40:46.290Z,39.38
2018-08-09T05:41:46.358Z,39.38
2018-08-09T05:42:46.432Z,45.00
2018-08-09T05:43:46.503Z,50.63
2018-08-09T05:44:46.555Z,45.00
2018-08-09T05:45:46.622Z,45.00
2018-08-09T05:46:46.690Z,45.00
2018-08-09T05:47:46.778Z,45.00
2018-08-09T05:48:46.875Z,50.63
2018-08-09T05:49:46.886Z,50.63
2018-08-09T05:50:46.959Z,50.63
2018-08-09T05:51:47.023Z,50.63
2018-08-09T05:52:47.176Z,56.25
2018-08-09T05:53:47.155Z,56.25
2018-08-09T05:54:47.223Z,67.50
2018-08-09T05:55:47.291Z,67.50
2018-08-09T05:56:47.351Z,61.88
2018-08-09T05:57:47.431Z,56.25
2018-08-09T05:58:47.491Z,56.25
2018-08-09T05:59:47.556Z,56.25
2018-08-09T06:00:47.619Z,67.50
2018-08-09T06:01:47.683Z,84.38
2018-08-09T06:02:47.787Z,90.00
2018-08-09T06:03:47.831Z,95.63
2018-08-09T06:04:47.883Z,90.00
2018-08-09T06:05:48.077Z,90.00
2018-08-09T06:06:48.019Z,95.63
2018-08-09T06:07:48.244Z,112.50
2018-08-09T06:08:48.152Z,146.25
2018-08-09T06:09:48.215Z,208.13
2018-08-09T06:10:48.284Z,264.38
2018-08-09T06:11:48.351Z,292.50
2018-08-09T06:12:48.423Z,309.38
2018-08-09T06:13:48.496Z,331.88
2018-08-09T06:14:48.551Z,343.13
2018-08-09T06:15:48.619Z,331.88
2018-08-09T06:16:48.683Z,320.63
2018-08-09T06:17:48.759Z,292.50
2018-08-09T06:18:48.881Z,258.75
2018-08-09T06:19:48.891Z,225.00
2018-08-09T06:20:48.956Z,202.50
2018-08-09T06:21:49.024Z,196.88
2018-08-09T06:22:49.088Z,191.25
2018-08-09T06:23:49.504Z,191.25
2018-08-09T06:24:49.224Z,219.38
2018-08-09T06:25:49.287Z,264.38
2018-08-09T06:26:49.356Z,292.50
2018-08-09T06:27:49.424Z,298.13
2018-08-09T06:28:49.497Z,247.50
2018-08-09T06:29:49.668Z,185.63
2018-08-09T06:30:49.632Z,135.00
2018-08-09T06:31:49.699Z,112.50
2018-08-09T06:32:49.760Z,106.88
2018-08-09T06:33:49.828Z,118.13
2018-08-09T06:34:49.907Z,135.00
2018-08-09T06:35:49.972Z,135.00
2018-08-09T06:36:50.036Z,135.00
2018-08-09T06:37:50.100Z,135.00
2018-08-09T06:38:50.164Z,135.00
2018-08-09T06:39:50.255Z,135.00
2018-08-09T06:40:50.300Z,135.00
2018-08-09T06:41:50.368Z,140.63
2018-08-09T06:42:50.436Z,151.88
2018-08-09T06:43:50.525Z,168.75
2018-08-09T06:44:50.576Z,191.25
2018-08-09T06:45:50.644Z,213.75
2018-08-09T06:46:50.704Z,258.75
2018-08-09T06:47:50.772Z,270.00
2018-08-09T06:48:50.840Z,270.00
2018-08-09T06:49:50.920Z,303.75
2018-08-09T06:50:50.995Z,376.88
2018-08-09T06:51:51.048Z,360.00
2018-08-09T06:52:51.117Z,720.00
2018-08-09T06:53:51.181Z,697.50
2018-08-09T06:54:51.268Z,742.50
2018-08-09T06:55:51.318Z,444.38
2018-08-09T06:56:51.385Z,450.00
2018-08-09T06:57:51.457Z,450.00
2018-08-09T06:58:51.524Z,652.50
2018-08-09T06:59:51.602Z,686.25
2018-08-09T07:00:51.669Z,360.00
2018-08-09T07:01:51.733Z,337.50
2018-08-09T07:02:51.800Z,315.00
2018-08-09T07:03:51.872Z,309.38
2018-08-09T07:04:51.944Z,315.00
2018-08-09T07:05:52.017Z,309.38
2018-08-09T07:06:52.114Z,320.63
2018-08-09T07:07:52.152Z,365.63
2018-08-09T07:08:52.216Z,371.25
2018-08-09T07:09:52.397Z,320.63
2018-08-09T07:10:52.356Z,309.38
2018-08-09T07:11:52.424Z,303.75
2018-08-09T07:12:52.552Z,303.75
2018-08-09T07:13:52.565Z,309.38
2018-08-09T07:14:52.643Z,320.63
2018-08-09T07:15:52.708Z,630.00
2018-08-09T07:16:52.768Z,393.75
2018-08-09T07:17:52.842Z,450.00
2018-08-09T07:18:52.909Z,1080.00
2018-08-09T07:19:52.989Z,478.13
2018-08-09T07:20:53.058Z,376.88
2018-08-09T07:21:53.118Z,303.75
2018-08-09T07:22:53.189Z,286.88
2018-08-09T07:23:53.257Z,253.13
2018-08-09T07:24:53.326Z,225.00
2018-08-09T07:25:53.757Z,219.38
2018-08-09T07:26:53.469Z,230.63
2018-08-09T07:27:53.553Z,219.38
2018-08-09T07:28:53.605Z,202.50
2018-08-09T07:29:53.673Z,191.25
2018-08-09T07:30:53.745Z,180.00
2018-08-09T07:31:53.829Z,174.38
2018-08-09T07:32:53.881Z,180.00
2018-08-09T07:33:54.042Z,191.25
2018-08-09T07:34:54.022Z,208.13
2018-08-09T07:35:54.089Z,230.63
2018-08-09T07:36:54.266Z,455.63
2018-08-09T07:37:54.229Z,461.25
2018-08-09T07:38:54.298Z,315.00
2018-08-09T07:39:54.366Z,331.88
2018-08-09T07:40:54.433Z,483.75
2018-08-09T07:41:54.513Z,601.88
2018-08-09T07:42:54.582Z,646.88
2018-08-09T07:43:54.646Z,410.63
2018-08-09T07:44:54.718Z,388.13
2018-08-09T07:45:54.786Z,354.38
2018-08-09T07:46:54.862Z,331.88
2018-08-09T07:47:54.930Z,309.38
2018-08-09T07:48:54.990Z,298.13
2018-08-09T07:49:55.062Z,292.50
2018-08-09T07:50:55.131Z,303.75
2018-08-09T07:51:55.215Z,275.63
2018-08-09T07:52:55.270Z,315.00
2018-08-09T07:53:55.338Z,309.38
2018-08-09T07:54:55.411Z,320.63
2018-08-09T07:55:55.478Z,303.75
2018-08-09T07:56:55.569Z,275.63
2018-08-09T07:57:55.634Z,253.13
2018-08-09T07:58:55.691Z,241.88
2018-08-09T07:59:55.759Z,247.50
2018-08-09T08:00:55.838Z,270.00
2018-08-09T08:01:55.911Z,309.38
2018-08-09T08:02:55.975Z,309.38
2018-08-09T08:03:56.036Z,309.38
2018-08-09T08:04:56.115Z,292.50
2018-08-09T08:05:56.190Z,264.38
2018-08-09T08:06:56.395Z,253.13
2018-08-09T08:07:56.315Z,247.50
2018-08-09T08:08:56.383Z,264.38
2018-08-09T08:09:56.455Z,298.13
2018-08-09T08:10:56.525Z,360.00
2018-08-09T08:11:56.599Z,506.25
2018-08-09T08:12:56.675Z,1125.00
2018-08-09T08:13:56.732Z,1243.13
2018-08-09T08:14:56.852Z,1338.75
2018-08-09T08:15:56.872Z,1344.38
2018-08-09T08:16:56.988Z,1333.13
2018-08-09T08:17:57.019Z,1316.25
2018-08-09T08:18:57.088Z,1153.13
2018-08-09T08:19:57.164Z,821.25
2018-08-09T08:20:57.232Z,916.88
2018-08-09T08:21:57.320Z,635.63
2018-08-09T08:22:57.375Z,489.38
2018-08-09T08:23:57.451Z,405.00
2018-08-09T08:24:57.520Z,343.13
2018-08-09T08:25:57.596Z,292.50
2018-08-09T08:26:57.676Z,264.38
2018-08-09T08:27:57.748Z,236.25
2018-08-09T08:28:57.812Z,219.38
2018-08-09T08:29:57.888Z,208.13
2018-08-09T08:30:57.956Z,208.13
2018-08-09T08:31:58.037Z,213.75
2018-08-09T08:32:58.113Z,225.00
2018-08-09T08:33:58.173Z,219.38
2018-08-09T08:34:58.257Z,208.13
2018-08-09T08:35:58.317Z,196.88
2018-08-09T08:36:58.409Z,196.88
2018-08-09T08:37:58.461Z,196.88
2018-08-09T08:38:58.533Z,202.50
2018-08-09T08:39:58.605Z,208.13
2018-08-09T08:40:58.677Z,219.38
2018-08-09T08:41:58.753Z,225.00
2018-08-09T08:42:58.825Z,236.25
2018-08-09T08:43:58.889Z,230.63
2018-08-09T08:44:58.958Z,213.75
2018-08-09T08:45:59.029Z,202.50
2018-08-09T08:46:59.277Z,213.75
2018-08-09T08:47:59.173Z,247.50
2018-08-09T08:48:59.244Z,281.25
2018-08-09T08:49:59.316Z,382.50
2018-08-09T08:50:59.393Z,450.00
2018-08-09T08:51:59.462Z,478.13
2018-08-09T08:52:59.529Z,517.50
2018-08-09T08:53:59.596Z,528.75
2018-08-09T08:54:59.666Z,461.25
2018-08-09T08:55:59.737Z,427.50
2018-08-09T08:56:59.813Z,382.50
2018-08-09T08:57:59.890Z,360.00
2018-08-09T08:58:59.950Z,337.50
2018-08-09T09:00:00.024Z,331.88
2018-08-09T09:01:00.121Z,320.63
2018-08-09T09:02:00.318Z,315.00
2018-08-09T09:03:00.234Z,320.63
2018-08-09T09:04:00.310Z,337.50
2018-08-09T09:05:00.378Z,376.88
2018-08-09T09:06:00.446Z,365.63
2018-08-09T09:07:00.578Z,337.50
2018-08-09T09:08:00.594Z,303.75
2018-08-09T09:09:00.658Z,270.00
2018-08-09T09:10:00.730Z,253.13
2018-08-09T09:11:00.803Z,241.88
2018-08-09T09:12:00.878Z,241.88
2018-08-09T09:13:00.951Z,241.88
2018-08-09T09:14:01.015Z,253.13
2018-08-09T09:15:01.082Z,292.50
2018-08-09T09:16:01.155Z,348.75
2018-08-09T09:17:01.226Z,399.38
2018-08-09T09:18:01.450Z,804.38
2018-08-09T09:19:01.367Z,405.00
2018-08-09T09:20:01.439Z,354.38
2018-08-09T09:21:01.510Z,405.00
2018-08-09T09:22:01.587Z,360.00
2018-08-09T09:23:01.662Z,376.88
2018-08-09T09:24:01.740Z,421.88
2018-08-09T09:25:01.794Z,399.38
2018-08-09T09:26:01.866Z,405.00
2018-08-09T09:27:01.962Z,455.63
2018-08-09T09:28:02.022Z,686.25
2018-08-09T09:29:02.091Z,669.38
2018-08-09T09:30:02.155Z,540.00
2018-08-09T09:31:02.222Z,399.38
2018-08-09T09:32:02.294Z,354.38
2018-08-09T09:33:02.374Z,320.63
2018-08-09T09:34:02.449Z,292.50
2018-08-09T09:35:02.564Z,275.63
2018-08-09T09:36:02.582Z,281.25
2018-08-09T09:37:02.655Z,315.00
2018-08-09T09:38:02.735Z,326.25
2018-08-09T09:39:02.807Z,376.88
2018-08-09T09:40:02.874Z,562.50
2018-08-09T09:41:02.943Z,596.25
2018-08-09T09:42:03.015Z,556.88
2018-08-09T09:43:03.103Z,416.25
2018-08-09T09:44:03.159Z,382.50
2018-08-09T09:45:03.231Z,371.25
2018-08-09T09:46:03.303Z,410.63
2018-08-09T09:47:03.423Z,399.38
2018-08-09T09:48:03.455Z,405.00
2018-08-09T09:49:03.527Z,438.75
2018-08-09T09:50:03.595Z,523.13
2018-08-09T09:51:03.663Z,517.50
2018-08-09T09:52:03.740Z,506.25
2018-08-09T09:53:03.819Z,489.38
2018-08-09T09:54:03.892Z,421.88
2018-08-09T09:55:03.965Z,298.13
2018-08-09T09:56:04.082Z,427.50
2018-08-09T09:57:04.104Z,433.13
2018-08-09T09:58:04.200Z,410.63
2018-08-09T09:59:04.251Z,405.00
2018-08-09T10:00:04.329Z,399.38
2018-08-09T10:01:04.401Z,393.75
2018-08-09T10:02:04.536Z,388.13
2018-08-09T10:03:04.552Z,388.13
2018-08-09T10:04:04.629Z,388.13
2018-08-09T10:05:04.692Z,376.88
2018-08-09T10:06:04.768Z,376.88
2018-08-09T10:07:04.906Z,371.25
2018-08-09T10:08:04.920Z,365.63
2018-08-09T10:09:04.996Z,365.63
2018-08-09T10:10:05.060Z,360.00
2018-08-09T10:11:05.136Z,360.00
2018-08-09T10:12:05.212Z,354.38
2018-08-09T10:13:05.292Z,348.75
2018-08-09T10:14:05.372Z,348.75
2018-08-09T10:15:05.432Z,348.75
2018-08-09T10:16:05.508Z,348.75
2018-08-09T10:17:05.580Z,343.13
2018-08-09T10:18:05.652Z,337.50
2018-08-09T10:19:05.736Z,337.50
2018-08-09T10:20:05.817Z,337.50
2018-08-09T10:21:05.880Z,337.50
2018-08-09T10:22:05.956Z,331.88
2018-08-09T10:23:06.025Z,331.88
2018-08-09T10:24:06.446Z,331.88
2018-08-09T10:25:06.173Z,326.25
2018-08-09T10:26:06.252Z,326.25
2018-08-09T10:27:06.321Z,326.25
2018-08-09T10:28:06.397Z,326.25
2018-08-09T10:29:06.478Z,326.25
2018-08-09T10:30:06.551Z,326.25
2018-08-09T10:31:06.617Z,337.50
2018-08-09T10:32:06.697Z,337.50
2018-08-09T10:33:06.769Z,337.50
2018-08-09T10:34:06.845Z,275.63
2018-08-09T10:35:06.925Z,258.75
2018-08-09T10:36:06.993Z,202.50
2018-08-09T10:37:07.061Z,180.00
2018-08-09T10:38:07.137Z,185.63
2018-08-09T10:39:07.337Z,185.63
2018-08-09T10:40:07.288Z,202.50
2018-08-09T10:41:07.362Z,225.00
2018-08-09T10:42:07.437Z,253.13
2018-08-09T10:43:07.505Z,270.00
2018-08-09T10:44:07.586Z,270.00
2018-08-09T10:45:07.657Z,281.25
2018-08-09T10:46:07.729Z,286.88
2018-08-09T10:47:07.797Z,298.13
2018-08-09T10:48:07.872Z,303.75
2018-08-09T10:49:07.955Z,309.38
2018-08-09T10:50:08.025Z,309.38
2018-08-09T10:51:08.089Z,315.00
2018-08-09T10:52:08.166Z,320.63
2018-08-09T10:53:08.238Z,337.50
2018-08-09T10:54:08.493Z,337.50
2018-08-09T10:55:08.381Z,337.50
2018-08-09T10:56:08.458Z,320.63
2018-08-09T10:57:08.530Z,309.38
2018-08-09T10:58:08.602Z,292.50
2018-08-09T10:59:08.686Z,292.50
2018-08-09T11:00:08.754Z,292.50
2018-08-09T11:01:08.822Z,292.50
2018-08-09T11:02:08.894Z,309.38
2018-08-09T11:03:08.966Z,303.75
2018-08-09T11:04:09.046Z,315.00
2018-08-09T11:05:09.118Z,320.63
2018-08-09T11:06:09.182Z,320.63
2018-08-09T11:07:09.254Z,320.63
2018-08-09T11:08:09.337Z,320.63
2018-08-09T11:09:09.506Z,320.63
2018-08-09T11:10:09.476Z,326.25
2018-08-09T11:11:09.546Z,326.25
2018-08-09T11:12:09.619Z,320.63
2018-08-09T11:13:09.690Z,320.63
2018-08-09T11:14:09.782Z,315.00
2018-08-09T11:15:09.897Z,303.75
2018-08-09T11:16:09.907Z,309.38
2018-08-09T11:17:09.979Z,315.00
2018-08-09T11:18:10.054Z,393.75
2018-08-09T11:19:10.143Z,371.25
2018-08-09T11:20:10.203Z,354.38
2018-08-09T11:21:10.270Z,365.63
2018-08-09T11:22:10.343Z,371.25
2018-08-09T11:23:10.419Z,427.50
2018-08-09T11:24:10.495Z,348.75
2018-08-09T11:25:10.567Z,303.75
2018-08-09T11:26:10.631Z,264.38
2018-08-09T11:27:10.707Z,236.25
2018-08-09T11:28:10.781Z,213.75
2018-08-09T11:29:10.859Z,208.13
2018-08-09T11:30:10.927Z,208.13
2018-08-09T11:31:10.999Z,208.13
2018-08-09T11:32:11.067Z,213.75
2018-08-09T11:33:11.140Z,225.00
2018-08-09T11:34:11.232Z,241.88
2018-08-09T11:35:11.284Z,247.50
2018-08-09T11:36:11.360Z,258.75
2018-08-09T11:37:11.431Z,281.25
2018-08-09T11:38:11.499Z,281.25
2018-08-09T11:39:11.579Z,292.50
2018-08-09T11:40:11.655Z,309.38
2018-08-09T11:41:11.719Z,320.63
2018-08-09T11:42:11.791Z,326.25
2018-08-09T11:43:11.859Z,337.50
2018-08-09T11:44:11.954Z,343.13
2018-08-09T11:45:12.011Z,371.25
2018-08-09T11:46:12.080Z,388.13
2018-08-09T11:47:12.155Z,376.88
2018-08-09T11:48:12.227Z,365.63
2018-08-09T11:49:12.299Z,348.75
2018-08-09T11:50:12.532Z,331.88
2018-08-09T11:51:12.436Z,320.63
2018-08-09T11:52:12.511Z,303.75
2018-08-09T11:53:12.580Z,298.13
2018-08-09T11:54:12.656Z,292.50
2018-08-09T11:55:12.732Z,292.50
2018-08-09T11:56:12.885Z,292.50
2018-08-09T11:57:12.874Z,298.13
2018-08-09T11:58:12.944Z,292.50
2018-08-09T11:59:13.016Z,298.13
2018-08-09T12:00:13.188Z,298.13
2018-08-09T12:01:13.160Z,298.13
2018-08-09T12:02:13.237Z,298.13
2018-08-09T12:03:13.360Z,292.50
2018-08-09T12:04:13.376Z,292.50
2018-08-09T12:05:13.456Z,286.88
2018-08-09T12:06:13.528Z,281.25
2018-08-09T12:07:13.605Z,270.00
2018-08-09T12:08:13.672Z,258.75
2018-08-09T12:09:13.741Z,253.13
2018-08-09T12:10:13.816Z,241.88
2018-08-09T12:11:13.888Z,230.63
2018-08-09T12:12:13.956Z,219.38
2018-08-09T12:13:14.029Z,208.13
2018-08-09T12:14:14.105Z,202.50
2018-08-09T12:15:14.189Z,196.88
2018-08-09T12:16:14.244Z,185.63
2018-08-09T12:17:14.317Z,174.38
2018-08-09T12:18:14.385Z,157.50
2018-08-09T12:19:14.461Z,135.00
2018-08-09T12:20:14.545Z,106.88
2018-08-09T12:21:14.610Z,84.38
2018-08-09T12:22:14.673Z,67.50
2018-08-09T12:23:14.749Z,61.88
2018-08-09T12:24:14.831Z,78.75
2018-08-09T12:25:14.901Z,101.25
2018-08-09T12:26:14.969Z,95.63
2018-08-09T12:27:15.033Z,84.38
2018-08-09T12:28:15.109Z,73.13
2018-08-09T12:29:15.177Z,67.50
2018-08-09T12:30:15.419Z,61.88
2018-08-09T12:31:15.317Z,73.13
2018-08-09T12:32:15.405Z,84.38
2018-08-09T12:33:15.497Z,95.63
2018-08-09T12:34:15.533Z,106.88
2018-08-09T12:35:15.609Z,118.13
2018-08-09T12:36:15.677Z,123.75
2018-08-09T12:37:15.745Z,123.75
2018-08-09T12:38:15.817Z,118.13
2018-08-09T12:39:15.889Z,106.88
2018-08-09T12:40:15.969Z,112.50
2018-08-09T12:41:16.038Z,129.38
2018-08-09T12:42:16.102Z,157.50
2018-08-09T12:43:16.177Z,174.38
2018-08-09T12:44:16.241Z,174.38
2018-08-09T12:45:16.340Z,174.38
2018-08-09T12:46:16.446Z,163.13
2018-08-09T12:47:16.457Z,168.75
2018-08-09T12:48:16.526Z,168.75
2018-08-09T12:49:16.593Z,168.75